createdAt,value
2018-04-10T00:29:15.965Z,26.80
2018-04-10T00:31:42.550Z,25.73
2018-04-10T00:34:09.152Z,26.07
2018-04-10T00:36:35.728Z,26.67
2018-04-10T00:39:02.305Z,26.00
2018-04-10T00:41:28.895Z,32.57
2018-04-10T00:43:55.471Z,34.37
2018-04-10T00:46:22.056Z,29.93
2018-04-10T00:48:48.637Z,27.37
2018-04-10T00:51:15.214Z,28.60
2018-04-10T00:53:41.792Z,28.80
2018-04-10T00:56:08.368Z,31.43
2018-04-10T00:58:34.977Z,28.40
2018-04-10T01:01:01.555Z,30.97
2018-04-10T01:03:28.128Z,27.90
2018-04-10T01:05:54.728Z,31.07
2018-04-10T01:08:21.332Z,32.70
2018-04-10T01:10:47.909Z,32.23
2018-04-10T01:13:14.481Z,30.20
2018-04-10T01:15:41.058Z,29.30
2018-04-10T01:18:07.636Z,33.60
2018-04-10T01:20:34.209Z,30.90
2018-04-10T01:23:00.820Z,36.13
2018-04-10T01:25:27.397Z,32.20
2018-04-10T01:27:54.018Z,33.13
2018-04-10T01:30:20.598Z,39.20
2018-04-10T01:32:47.182Z,35.83
2018-04-10T01:35:13.785Z,31.80
2018-04-10T01:37:40.356Z,30.07
2018-04-10T01:40:06.940Z,34.80
2018-04-10T01:42:33.517Z,32.73
2018-04-10T01:45:00.097Z,32.23
2018-04-10T01:47:26.705Z,34.17
2018-04-10T01:49:53.277Z,30.87
2018-04-10T01:52:20.441Z,31.43
2018-04-10T01:54:47.045Z,36.10
2018-04-10T01:57:13.728Z,36.30
2018-04-10T01:59:40.408Z,37.20
2018-04-10T02:02:06.988Z,31.83
2018-04-10T02:04:33.556Z,32.30
2018-04-10T02:07:00.140Z,35.70
2018-04-10T02:09:26.725Z,32.80
2018-04-10T02:11:53.320Z,35.67
2018-04-10T02:14:19.882Z,37.23
2018-04-10T02:16:46.473Z,35.30
2018-04-10T02:19:13.049Z,31.10
2018-04-10T02:21:39.627Z,34.17
2018-04-10T02:24:06.224Z,33.70
2018-04-10T02:26:32.833Z,31.67
2018-04-10T02:28:59.425Z,34.00
2018-04-10T02:31:26.000Z,36.37
2018-04-10T02:33:52.583Z,34.20
2018-04-10T02:36:19.181Z,29.80
2018-04-10T02:38:46.580Z,37.83
2018-04-10T02:41:13.157Z,32.20
2018-04-10T02:43:39.771Z,32.90
2018-04-10T02:46:06.347Z,33.30
2018-04-10T02:48:32.929Z,31.87
2018-04-10T02:50:59.517Z,28.00
2018-04-10T02:53:26.110Z,31.53
2018-04-10T02:55:52.684Z,33.53
2018-04-10T02:58:19.261Z,28.83
2018-04-10T03:00:45.841Z,32.30
2018-04-10T03:03:12.647Z,33.10
2018-04-10T03:05:39.205Z,35.40
2018-04-10T03:08:05.792Z,31.27
2018-04-10T03:10:32.368Z,31.20
2018-04-10T03:12:58.945Z,33.83
2018-04-10T03:15:25.525Z,31.30
2018-04-10T03:17:52.098Z,26.93
2018-04-10T03:20:18.676Z,26.20
2018-04-10T03:22:45.285Z,35.87
2018-04-10T03:25:11.864Z,31.23
2018-04-10T03:27:38.441Z,33.20
2018-04-10T03:30:05.014Z,30.90
2018-04-10T03:32:31.623Z,34.60
2018-04-10T03:34:58.198Z,31.50
2018-04-10T03:37:24.778Z,31.20
2018-04-10T03:39:51.351Z,37.60
2018-04-10T03:42:18.036Z,31.93
2018-04-10T03:44:44.609Z,30.13
2018-04-10T03:47:11.184Z,33.97
2018-04-10T03:49:37.785Z,31.97
2018-04-10T03:52:04.360Z,33.03
2018-04-10T03:54:30.958Z,29.80
2018-04-10T03:56:57.533Z,31.97
2018-04-10T03:59:24.382Z,31.63
2018-04-10T04:01:50.964Z,31.87
2018-04-10T04:04:17.544Z,29.60
2018-04-10T04:06:44.128Z,37.10
2018-04-10T04:09:10.706Z,28.73
2018-04-10T04:11:37.294Z,31.50
2018-04-10T04:14:03.872Z,31.07
2018-04-10T04:16:36.209Z,33.70
2018-04-10T04:19:08.541Z,28.60
2018-04-10T04:21:41.149Z,35.10
2018-04-10T04:24:07.739Z,29.33
2018-04-10T04:26:34.309Z,36.00
2018-04-10T04:29:00.900Z,30.80
2018-04-10T04:31:27.477Z,31.50
2018-04-10T04:33:54.077Z,26.73
2018-04-10T04:36:20.662Z,26.87
2018-04-10T04:38:47.244Z,33.13
2018-04-10T04:41:13.829Z,29.30
2018-04-10T04:43:40.419Z,28.17
2018-04-10T04:46:06.996Z,31.03
2018-04-10T04:48:33.577Z,27.00
2018-04-10T04:51:00.161Z,27.37
2018-04-10T04:53:26.787Z,26.67
2018-04-10T04:55:53.329Z,26.63
2018-04-10T04:58:19.909Z,23.40
2018-04-10T05:00:46.482Z,29.70
2018-04-10T05:03:13.063Z,30.10
2018-04-10T05:05:39.636Z,24.30
2018-04-10T05:08:06.221Z,26.77
2018-04-10T05:10:32.789Z,26.47
2018-04-10T05:12:59.376Z,39.13
2018-04-10T05:15:25.956Z,24.00
2018-04-10T05:17:52.521Z,26.10
2018-04-10T05:20:19.100Z,24.50
2018-04-10T05:22:45.694Z,26.80
2018-04-10T05:25:12.325Z,28.53
2018-04-10T05:27:38.876Z,25.53
2018-04-10T05:30:05.513Z,30.23
2018-04-10T05:32:32.093Z,32.27
2018-04-10T05:34:58.672Z,32.70
2018-04-10T05:37:25.249Z,27.37
2018-04-10T05:39:51.837Z,32.70
2018-04-10T05:42:18.424Z,28.30
2018-04-10T05:44:45.018Z,29.63
2018-04-10T05:47:11.585Z,30.40
2018-04-10T05:49:38.165Z,33.90
2018-04-10T05:52:04.745Z,31.03
2018-04-10T05:54:31.324Z,28.90
2018-04-10T05:56:57.919Z,29.80
2018-04-10T05:59:24.496Z,28.73
2018-04-10T06:01:51.069Z,28.73
2018-04-10T06:04:17.648Z,31.63
2018-04-10T06:06:44.257Z,27.93
2018-04-10T06:09:10.823Z,27.53
2018-04-10T06:11:37.397Z,28.87
2018-04-10T06:14:03.974Z,25.97
2018-04-10T06:16:30.565Z,29.20
2018-04-10T06:18:57.145Z,28.00
2018-04-10T06:21:23.768Z,27.97
2018-04-10T06:23:50.300Z,33.80
2018-04-10T06:26:16.877Z,26.10
2018-04-10T06:28:43.467Z,27.57
2018-04-10T06:31:10.098Z,27.30
2018-04-10T06:33:36.649Z,35.57
2018-04-10T06:36:03.229Z,24.53
2018-04-10T06:38:29.923Z,23.83
2018-04-10T06:40:56.505Z,26.57
2018-04-10T06:43:23.080Z,25.00
2018-04-10T06:45:49.704Z,22.60
2018-04-10T06:48:16.333Z,22.40
2018-04-10T06:50:42.897Z,24.53
2018-04-10T06:53:09.477Z,20.60
2018-04-10T06:55:36.045Z,24.93
2018-04-10T06:58:02.948Z,27.77
2018-04-10T07:00:29.521Z,22.73
2018-04-10T07:02:56.096Z,22.83
2018-04-10T07:05:22.692Z,23.07
2018-04-10T07:07:49.267Z,24.70
2018-04-10T07:10:15.845Z,23.07
2018-04-10T07:12:42.421Z,21.47
2018-04-10T07:15:09.005Z,27.57
2018-04-10T07:17:35.585Z,26.40
2018-04-10T07:20:02.160Z,22.80
2018-04-10T07:22:30.913Z,25.40
2018-04-10T07:24:57.626Z,23.13
2018-04-10T07:27:24.196Z,27.10
2018-04-10T07:29:50.775Z,23.13
2018-04-10T07:32:17.358Z,21.23
2018-04-10T07:34:43.961Z,22.27
2018-04-10T07:37:10.546Z,21.13
2018-04-10T07:39:37.135Z,17.00
2018-04-10T07:42:03.725Z,23.77
2018-04-10T07:44:30.286Z,21.00
2018-04-10T07:46:56.866Z,21.47
2018-04-10T07:49:23.441Z,21.53
2018-04-10T07:51:50.017Z,18.43
2018-04-10T07:54:16.601Z,21.53
2018-04-10T07:56:43.181Z,16.93
2018-04-10T07:59:09.818Z,18.47
2018-04-10T08:01:36.393Z,20.13
2018-04-10T08:04:02.956Z,16.30
2018-04-10T08:06:29.543Z,16.50
2018-04-10T08:08:56.121Z,16.87
2018-04-10T08:11:22.697Z,17.63
2018-04-10T08:13:49.269Z,19.67
2018-04-10T08:16:15.851Z,15.70
2018-04-10T08:18:42.420Z,15.23
2018-04-10T08:21:09.001Z,12.80
2018-04-10T08:23:35.642Z,18.73
2018-04-10T08:26:02.230Z,13.03
2018-04-10T08:28:28.816Z,22.03
2018-04-10T08:30:55.385Z,17.10
2018-04-10T08:33:21.957Z,15.23
2018-04-10T08:35:48.535Z,14.90
2018-04-10T08:38:15.113Z,15.77
2018-04-10T08:40:41.695Z,14.57
2018-04-10T08:43:08.257Z,13.40
2018-04-10T08:45:34.835Z,10.87
2018-04-10T08:48:01.409Z,9.97
2018-04-10T08:50:28.016Z,11.10
2018-04-10T08:52:54.653Z,10.10
2018-04-10T08:55:21.197Z,7.40
2018-04-10T08:57:47.765Z,8.97
2018-04-10T09:00:14.332Z,11.27
2018-04-10T09:02:40.922Z,11.63
2018-04-10T09:05:07.494Z,8.60
2018-04-10T09:07:34.057Z,9.50
2018-04-10T09:10:00.621Z,5.70
2018-04-10T09:12:27.199Z,5.43
2018-04-10T09:14:53.770Z,4.07
2018-04-10T09:17:20.349Z,5.70
2018-04-10T09:19:46.928Z,6.37
2018-04-10T09:22:13.501Z,6.10
2018-04-10T09:24:40.069Z,6.20
2018-04-10T09:27:06.652Z,6.43
2018-04-10T09:29:33.210Z,8.57
2018-04-10T09:31:59.813Z,7.10
2018-04-10T09:34:26.390Z,8.30
2018-04-10T09:36:52.958Z,17.93
2018-04-10T09:39:19.533Z,9.07
2018-04-10T09:41:46.117Z,6.27
2018-04-10T09:44:12.693Z,4.10
2018-04-10T09:46:39.263Z,5.00
2018-04-10T09:49:05.849Z,3.83
2018-04-10T09:51:32.445Z,2.47
2018-04-10T09:53:59.018Z,3.13
2018-04-10T09:56:25.662Z,3.23
2018-04-10T09:58:52.213Z,2.90
2018-04-10T10:01:18.785Z,2.10
2018-04-10T10:03:45.364Z,2.43
2018-04-10T10:06:11.929Z,4.67
2018-04-10T10:08:38.494Z,5.30
2018-04-10T10:11:05.069Z,2.50
2018-04-10T10:13:31.636Z,4.57
2018-04-10T10:15:58.385Z,4.20
2018-04-10T10:18:24.930Z,6.60
2018-04-10T10:20:51.513Z,4.60
2018-04-10T10:23:18.097Z,4.90
2018-04-10T10:25:44.653Z,7.30
2018-04-10T10:28:11.231Z,7.20
2018-04-10T10:30:37.793Z,3.67
2018-04-10T10:33:04.369Z,3.60
2018-04-10T10:35:30.932Z,3.90
2018-04-10T10:37:57.505Z,5.20
2018-04-10T10:40:24.131Z,4.40
2018-04-10T10:42:50.685Z,3.77
2018-04-10T10:45:17.253Z,4.07
2018-04-10T10:47:43.820Z,4.17
2018-04-10T10:50:10.393Z,3.57
2018-04-10T10:52:36.982Z,3.97
2018-04-10T10:55:03.549Z,5.20
2018-04-10T10:57:30.132Z,5.50
2018-04-10T10:59:56.700Z,5.13
2018-04-10T11:02:23.257Z,3.93
2018-04-10T11:04:49.825Z,5.70
2018-04-10T11:07:16.409Z,16.37
2018-04-10T11:09:42.981Z,8.83
2018-04-10T11:12:09.563Z,6.60
2018-04-10T11:14:36.137Z,3.97
2018-04-10T11:17:02.721Z,3.60
2018-04-10T11:19:29.321Z,3.17
2018-04-10T11:21:55.892Z,3.53
2018-04-10T11:24:22.460Z,3.93
2018-04-10T11:26:49.053Z,7.60
2018-04-10T11:29:15.608Z,4.23
2018-04-10T11:31:42.180Z,5.40
2018-04-10T11:34:08.753Z,3.53
2018-04-10T11:36:35.328Z,2.80
2018-04-10T11:39:01.911Z,10.80
2018-04-10T11:41:28.468Z,3.70
2018-04-10T11:43:55.049Z,3.03
2018-04-10T11:46:21.617Z,4.20
2018-04-10T11:48:48.194Z,4.87
2018-04-10T11:51:14.856Z,2.97
2018-04-10T11:53:41.409Z,2.63
2018-04-10T11:56:07.997Z,2.93
2018-04-10T11:58:34.574Z,3.57
2018-04-10T12:01:01.148Z,2.87
2018-04-10T12:03:27.710Z,2.50
2018-04-10T12:05:54.294Z,3.83
2018-04-10T12:08:20.890Z,3.23
2018-04-10T12:10:47.449Z,2.47
2018-04-10T12:13:14.021Z,7.20
2018-04-10T12:15:40.608Z,3.03
2018-04-10T12:18:07.169Z,2.77
2018-04-10T12:20:33.734Z,3.23
2018-04-10T12:23:00.304Z,2.60
2018-04-10T12:25:26.884Z,2.90
2018-04-10T12:27:53.449Z,2.30
2018-04-10T12:30:20.023Z,3.40
2018-04-10T12:32:46.584Z,3.80
2018-04-10T12:35:13.164Z,2.30
2018-04-10T12:37:39.737Z,4.40
2018-04-10T12:40:07.145Z,1.97
2018-04-10T12:42:33.697Z,4.10
2018-04-10T12:45:00.268Z,6.23
2018-04-10T12:47:26.837Z,10.37
2018-04-10T12:49:53.407Z,2.70
2018-04-10T12:52:19.975Z,1.50
2018-04-10T12:54:46.541Z,2.10
2018-04-10T12:57:13.107Z,2.50
2018-04-10T12:59:39.673Z,3.87
2018-04-10T13:02:06.248Z,2.27
2018-04-10T13:04:32.812Z,2.27
2018-04-10T13:06:59.394Z,2.30
2018-04-10T13:09:25.973Z,2.10
2018-04-10T13:11:52.558Z,2.93
2018-04-10T13:14:19.123Z,2.17
2018-04-10T13:16:45.684Z,4.57
2018-04-10T13:19:12.261Z,4.57
2018-04-10T13:21:38.825Z,2.30
2018-04-10T13:24:05.400Z,2.43
2018-04-10T13:26:31.969Z,3.63
2018-04-10T13:28:58.545Z,2.73
2018-04-10T13:31:25.110Z,4.17
2018-04-10T13:33:51.681Z,3.20
2018-04-10T13:36:18.253Z,2.33
2018-04-10T13:38:44.821Z,2.87
2018-04-10T13:41:11.391Z,2.07
2018-04-10T13:43:37.997Z,2.70
2018-04-10T13:46:04.532Z,2.20
2018-04-10T13:48:31.130Z,3.17
2018-04-10T13:50:57.692Z,2.70
2018-04-10T13:53:24.262Z,2.90
2018-04-10T13:55:50.833Z,3.60
2018-04-10T13:58:17.405Z,3.07
2018-04-10T14:00:43.983Z,5.60
2018-04-10T14:03:10.543Z,3.13
2018-04-10T14:05:37.119Z,3.77
2018-04-10T14:08:03.689Z,2.60
2018-04-10T14:10:30.269Z,4.50
2018-04-10T14:12:56.835Z,2.37
2018-04-10T14:15:23.416Z,2.60
2018-04-10T14:17:49.986Z,2.60
2018-04-10T14:20:16.557Z,4.33
2018-04-10T14:22:43.126Z,2.57
2018-04-10T14:25:09.710Z,4.03
2018-04-10T14:27:36.274Z,2.23
2018-04-10T14:30:02.870Z,3.17
2018-04-10T14:32:29.436Z,2.93
2018-04-10T14:34:56.099Z,4.67
2018-04-10T14:37:22.672Z,2.50
2018-04-10T14:39:49.241Z,2.47
2018-04-10T14:42:15.821Z,2.47
2018-04-10T14:44:42.385Z,2.40
2018-04-10T14:47:08.962Z,2.10
2018-04-10T14:49:35.522Z,2.60
2018-04-10T14:52:02.106Z,7.27
2018-04-10T14:54:28.656Z,2.37
2018-04-10T14:56:55.238Z,2.30
2018-04-10T14:59:21.824Z,5.23
2018-04-10T15:01:48.376Z,3.13
2018-04-10T15:04:15.019Z,3.43
2018-04-10T15:06:41.568Z,3.23
2018-04-10T15:09:08.129Z,3.50
2018-04-10T15:11:34.691Z,2.20
2018-04-10T15:14:01.276Z,4.70
2018-04-10T15:16:27.849Z,2.70
2018-04-10T15:18:54.430Z,2.50
2018-04-10T15:21:21.024Z,2.60
2018-04-10T15:23:47.605Z,2.40
2018-04-10T15:26:14.172Z,3.37
2018-04-10T15:28:40.772Z,2.70
2018-04-10T15:31:07.310Z,4.27
2018-04-10T15:33:33.877Z,5.50
2018-04-10T15:36:00.447Z,3.57
2018-04-10T15:38:27.032Z,2.90
2018-04-10T15:40:53.633Z,4.00
2018-04-10T15:43:20.209Z,2.40
2018-04-10T15:45:46.781Z,2.50
2018-04-10T15:48:13.347Z,4.50
2018-04-10T15:50:39.918Z,4.23
2018-04-10T15:53:06.484Z,4.87
2018-04-10T15:55:33.065Z,2.43
2018-04-10T15:57:59.647Z,2.67
2018-04-10T16:00:26.209Z,3.10
2018-04-10T16:02:52.778Z,2.83
2018-04-10T16:05:19.351Z,8.13
2018-04-10T16:07:45.924Z,7.73
2018-04-10T16:10:12.501Z,3.77
2018-04-10T16:12:39.065Z,5.73
2018-04-10T16:15:05.732Z,5.97
2018-04-10T16:17:32.277Z,6.67
2018-04-10T16:19:59.152Z,3.67
2018-04-10T16:22:25.772Z,3.43
2018-04-10T16:24:52.375Z,8.13
2018-04-10T16:27:18.935Z,5.57
2018-04-10T16:29:45.485Z,3.20
2018-04-10T16:32:12.134Z,11.13
2018-04-10T16:34:38.714Z,5.23
2018-04-10T16:37:05.285Z,5.00
2018-04-10T16:39:31.888Z,3.77
2018-04-10T16:41:58.493Z,5.63
2018-04-10T16:44:25.068Z,4.60
2018-04-10T16:46:51.663Z,7.73
2018-04-10T16:49:18.241Z,3.03
2018-04-10T16:51:45.179Z,4.57
2018-04-10T16:54:11.751Z,5.37
2018-04-10T16:56:38.350Z,4.10
2018-04-10T16:59:04.916Z,5.17
2018-04-10T17:01:32.427Z,5.60
2018-04-10T17:03:59.000Z,4.00
2018-04-10T17:06:25.622Z,3.50
2018-04-10T17:08:52.246Z,6.20
2018-04-10T17:11:18.816Z,4.87
2018-04-10T17:13:45.393Z,4.07
2018-04-10T17:16:11.953Z,5.83
2018-04-10T17:18:38.565Z,3.47
2018-04-10T17:21:05.199Z,5.70
2018-04-10T17:23:32.703Z,6.53
2018-04-10T17:25:59.291Z,4.17
2018-04-10T17:28:25.872Z,14.53
2018-04-10T17:30:52.445Z,12.00
2018-04-10T17:33:19.029Z,14.07
2018-04-10T17:35:45.608Z,18.63
2018-04-10T17:38:12.181Z,15.20
2018-04-10T17:40:38.764Z,15.90
2018-04-10T17:43:05.348Z,15.00
2018-04-10T17:45:31.934Z,19.43
2018-04-10T17:47:58.512Z,18.87
2018-04-10T17:50:26.017Z,15.83
2018-04-10T17:52:52.588Z,20.00
2018-04-10T17:55:19.168Z,21.67
2018-04-10T17:57:45.749Z,19.30
2018-04-10T18:00:12.332Z,15.63
2018-04-10T18:02:38.912Z,20.80
2018-04-10T18:05:05.508Z,16.03
2018-04-10T18:07:32.067Z,14.63
2018-04-10T18:09:58.660Z,16.83
2018-04-10T18:12:25.238Z,14.00
2018-04-10T18:14:51.876Z,14.47
2018-04-10T18:17:18.429Z,14.10
2018-04-10T18:19:45.014Z,12.93
2018-04-10T18:22:11.577Z,11.40
2018-04-10T18:24:38.181Z,11.00
2018-04-10T18:27:04.757Z,9.97
2018-04-10T18:29:31.324Z,6.83
2018-04-10T18:31:57.910Z,7.17
2018-04-10T18:34:24.483Z,6.80
2018-04-10T18:36:51.054Z,8.00
2018-04-10T18:39:17.618Z,8.83
2018-04-10T18:41:44.226Z,7.40
2018-04-10T18:44:10.757Z,10.43
2018-04-10T18:46:37.341Z,11.77
2018-04-10T18:49:03.905Z,8.53
2018-04-10T18:51:30.487Z,14.53
2018-04-10T18:53:57.089Z,9.80
2018-04-10T18:56:28.682Z,9.27
2018-04-10T18:58:55.357Z,8.13
2018-04-10T19:01:21.912Z,7.07
2018-04-10T19:03:48.557Z,9.87
2018-04-10T19:06:15.130Z,21.20
2018-04-10T19:08:41.718Z,12.13
2018-04-10T19:11:08.278Z,12.80
2018-04-10T19:13:34.856Z,11.17
2018-04-10T19:16:01.437Z,44.00
2018-04-10T19:18:28.008Z,22.73
2018-04-10T19:20:54.592Z,14.87
2018-04-10T19:23:21.177Z,13.77
2018-04-10T19:25:47.852Z,11.67
2018-04-10T19:28:14.412Z,10.90
2018-04-10T19:30:40.994Z,12.90
2018-04-10T19:33:07.578Z,21.63
2018-04-10T19:35:34.158Z,12.53
2018-04-10T19:38:00.729Z,16.33
2018-04-10T19:40:27.309Z,21.37
2018-04-10T19:42:53.888Z,18.33
2018-04-10T19:45:20.496Z,19.17
2018-04-10T19:47:47.095Z,19.07
2018-04-10T19:50:13.663Z,14.07
2018-04-10T19:52:40.241Z,14.70
2018-04-10T19:55:06.831Z,23.70
2018-04-10T19:57:33.401Z,26.30
2018-04-10T19:59:59.989Z,22.23
2018-04-10T20:02:26.613Z,23.37
2018-04-10T20:04:53.205Z,27.03
2018-04-10T20:07:19.778Z,23.57
2018-04-10T20:09:46.366Z,21.87
2018-04-10T20:12:12.944Z,19.67
2018-04-10T20:14:39.520Z,23.93
2018-04-10T20:17:06.238Z,23.83
2018-04-10T20:19:32.815Z,21.90
2018-04-10T20:21:59.425Z,20.30
2018-04-10T20:24:26.018Z,24.13
2018-04-10T20:26:52.601Z,21.47
2018-04-10T20:29:19.188Z,23.80
2018-04-10T20:31:45.773Z,22.33
2018-04-10T20:34:12.352Z,18.23
2018-04-10T20:36:38.933Z,20.20
2018-04-10T20:39:05.509Z,21.00
2018-04-10T20:41:32.108Z,23.73
2018-04-10T20:43:58.721Z,18.97
2018-04-10T20:46:25.308Z,21.70
2018-04-10T20:48:51.905Z,25.80
2018-04-10T20:51:18.481Z,18.70
2018-04-10T20:53:45.117Z,21.43
2018-04-10T20:56:11.693Z,24.93
2018-04-10T20:58:38.276Z,22.13
2018-04-10T21:01:04.849Z,23.10
2018-04-10T21:03:31.434Z,20.07
2018-04-10T21:05:58.013Z,28.17
2018-04-10T21:08:24.720Z,25.57
2018-04-10T21:10:51.288Z,24.40
2018-04-10T21:13:17.893Z,24.30
2018-04-10T21:15:44.548Z,26.07
2018-04-10T21:18:11.125Z,26.87
2018-04-10T21:20:37.695Z,25.57
2018-04-10T21:23:04.272Z,31.80
2018-04-10T21:25:30.858Z,27.27
2018-04-10T21:27:57.436Z,27.07
2018-04-10T21:30:24.064Z,27.43
2018-04-10T21:32:50.592Z,28.90
2018-04-10T21:35:17.226Z,31.30
2018-04-10T21:37:43.855Z,26.33
2018-04-10T21:40:10.378Z,23.13
2018-04-10T21:42:42.505Z,25.70
2018-04-10T21:45:09.089Z,20.00
2018-04-10T21:47:35.680Z,10.27
2018-04-10T21:50:02.251Z,12.47
2018-04-10T21:52:28.825Z,10.93
2018-04-10T21:54:55.462Z,8.60
2018-04-10T21:57:22.096Z,7.13
2018-04-10T21:59:48.672Z,7.20
2018-04-10T22:02:15.248Z,5.13
2018-04-10T22:04:41.853Z,5.33
2018-04-10T22:07:08.425Z,5.30
2018-04-10T22:09:35.949Z,4.63
2018-04-10T22:12:02.526Z,6.60
2018-04-10T22:14:29.109Z,5.20
2018-04-10T22:16:55.681Z,6.00
2018-04-10T22:19:22.253Z,5.60
2018-04-10T22:21:48.824Z,4.57
2018-04-10T22:24:15.396Z,5.20
2018-04-10T22:26:41.965Z,3.90
2018-04-10T22:29:08.551Z,3.83
2018-04-10T22:31:35.105Z,3.33
2018-04-10T22:34:01.646Z,4.10
2018-04-10T22:36:28.246Z,8.00
2018-04-10T22:38:54.813Z,3.70
2018-04-10T22:41:21.381Z,3.90
2018-04-10T22:43:47.949Z,4.07
2018-04-10T22:46:14.517Z,5.37
2018-04-10T22:48:41.127Z,5.53
2018-04-10T22:51:07.701Z,3.73
2018-04-10T22:53:34.278Z,4.97
2018-04-10T22:56:00.846Z,4.90
2018-04-10T22:58:27.475Z,4.70
2018-04-10T23:00:54.018Z,4.23
2018-04-10T23:03:20.610Z,4.97
2018-04-10T23:05:47.206Z,7.20
2018-04-10T23:08:13.796Z,4.37
2018-04-10T23:10:40.369Z,3.90
2018-04-10T23:13:06.944Z,5.17
2018-04-10T23:15:33.508Z,3.87
2018-04-10T23:18:00.086Z,5.60
2018-04-10T23:20:26.653Z,4.90
2018-04-10T23:22:53.229Z,4.87
2018-04-10T23:25:19.824Z,5.00
2018-04-10T23:27:46.391Z,4.10
2018-04-10T23:30:12.985Z,4.07
2018-04-10T23:32:39.554Z,4.40
2018-04-10T23:35:06.134Z,8.07
2018-04-10T23:37:32.704Z,5.13
2018-04-10T23:39:59.276Z,6.97
2018-04-10T23:42:25.869Z,5.10
2018-04-10T23:44:52.545Z,6.00
2018-04-10T23:47:19.095Z,4.70
2018-04-10T23:49:45.661Z,4.73
2018-04-10T23:52:12.230Z,6.63
2018-04-10T23:54:38.793Z,5.47
2018-04-10T23:57:05.375Z,9.33
2018-04-10T23:59:31.933Z,5.13
